createdAt,value
2019-03-19T00:02:09.251Z,4.86
2019-03-19T00:04:40.998Z,4.86
2019-03-19T00:07:12.819Z,4.87
2019-03-19T00:09:44.391Z,4.89
2019-03-19T00:12:16.294Z,4.88
2019-03-19T00:14:49.481Z,4.94
2019-03-19T00:17:21.052Z,4.95
2019-03-19T00:19:52.508Z,4.93
2019-03-19T00:22:25.790Z,4.92
2019-03-19T00:24:57.740Z,4.94
2019-03-19T00:27:29.565Z,4.92
2019-03-19T00:30:01.222Z,4.90
2019-03-19T00:32:32.920Z,4.92
2019-03-19T00:35:05.019Z,4.92
2019-03-19T00:37:36.900Z,4.96
2019-03-19T00:40:08.801Z,4.91
2019-03-19T00:42:40.270Z,4.91
2019-03-19T00:45:12.368Z,4.92
2019-03-19T00:47:43.755Z,4.87
2019-03-19T00:50:15.303Z,4.84
2019-03-19T00:52:46.986Z,4.76
2019-03-19T00:55:18.793Z,4.75
2019-03-19T00:57:50.176Z,4.68
2019-03-19T01:00:21.767Z,4.63
2019-03-19T01:02:53.609Z,4.62
2019-03-19T01:05:25.234Z,4.55
2019-03-19T01:07:56.753Z,4.53
2019-03-19T01:10:28.119Z,4.47
2019-03-19T01:12:59.682Z,4.46
2019-03-19T01:15:31.229Z,4.42
2019-03-19T01:18:02.927Z,4.41
2019-03-19T01:20:34.547Z,4.39
2019-03-19T01:23:06.066Z,4.37
2019-03-19T01:25:37.733Z,4.32
2019-03-19T01:28:09.167Z,4.31
2019-03-19T01:30:40.772Z,4.32
2019-03-19T01:33:12.471Z,4.30
2019-03-19T01:35:44.182Z,4.32
2019-03-19T01:38:16.631Z,4.30
2019-03-19T01:40:48.241Z,4.31
2019-03-19T01:43:20.280Z,4.26
2019-03-19T01:45:51.751Z,4.30
2019-03-19T01:48:23.214Z,4.25
2019-03-19T01:50:54.830Z,4.25
2019-03-19T01:53:26.200Z,4.24
2019-03-19T01:56:05.196Z,4.20
2019-03-19T01:58:30.514Z,4.18
2019-03-19T02:01:02.318Z,4.16
2019-03-19T02:03:33.808Z,4.15
2019-03-19T02:06:05.240Z,4.13
2019-03-19T02:08:36.759Z,4.17
2019-03-19T02:11:09.335Z,4.20
2019-03-19T02:13:40.969Z,4.24
2019-03-19T02:16:12.766Z,4.23
2019-03-19T02:18:44.600Z,4.21
2019-03-19T02:21:16.250Z,4.21
2019-03-19T02:23:47.797Z,4.19
2019-03-19T02:26:19.200Z,4.20
2019-03-19T02:28:51.107Z,4.21
2019-03-19T02:31:22.617Z,4.26
2019-03-19T02:33:55.961Z,4.29
2019-03-19T02:36:27.572Z,4.28
2019-03-19T02:38:59.039Z,4.27
2019-03-19T02:41:30.565Z,4.24
2019-03-19T02:44:02.166Z,4.26
2019-03-19T02:46:33.716Z,4.22
2019-03-19T02:49:05.131Z,4.20
2019-03-19T02:51:36.506Z,4.18
2019-03-19T02:54:08.893Z,4.20
2019-03-19T02:56:40.720Z,4.22
2019-03-19T02:59:12.328Z,4.19
2019-03-19T03:01:43.795Z,4.18
2019-03-19T03:04:15.562Z,4.19
2019-03-19T03:06:47.458Z,4.20
2019-03-19T03:09:19.304Z,4.17
2019-03-19T03:11:50.999Z,4.16
2019-03-19T03:14:22.367Z,4.15
2019-03-19T03:16:54.822Z,4.17
2019-03-19T03:19:27.380Z,4.18
2019-03-19T03:21:59.213Z,4.13
2019-03-19T03:24:30.890Z,4.17
2019-03-19T03:27:02.679Z,4.19
2019-03-19T03:29:34.211Z,4.20
2019-03-19T03:32:05.837Z,4.18
2019-03-19T03:34:37.238Z,4.17
2019-03-19T03:37:08.669Z,4.16
2019-03-19T03:39:40.169Z,4.14
2019-03-19T03:42:11.904Z,4.16
2019-03-19T03:44:43.699Z,4.17
2019-03-19T03:47:15.140Z,4.18
2019-03-19T03:49:46.858Z,4.19
2019-03-19T03:52:19.925Z,4.16
2019-03-19T03:54:51.708Z,4.14
2019-03-19T03:57:23.264Z,4.13
2019-03-19T03:59:54.633Z,4.15
2019-03-19T04:02:26.115Z,4.13
2019-03-19T04:04:57.690Z,4.15
2019-03-19T04:07:29.173Z,4.15
2019-03-19T04:10:00.923Z,4.18
2019-03-19T04:12:32.423Z,4.21
2019-03-19T04:15:04.149Z,4.19
2019-03-19T04:17:35.878Z,4.21
2019-03-19T04:20:07.621Z,4.21
2019-03-19T04:22:38.932Z,4.22
2019-03-19T04:25:11.040Z,4.22
2019-03-19T04:27:42.766Z,4.16
2019-03-19T04:30:14.432Z,4.18
2019-03-19T04:32:46.031Z,4.18
2019-03-19T04:35:17.931Z,4.14
2019-03-19T04:37:49.448Z,4.17
2019-03-19T04:40:21.116Z,4.13
2019-03-19T04:42:52.874Z,4.12
2019-03-19T04:45:24.657Z,4.13
2019-03-19T04:47:56.091Z,4.07
2019-03-19T04:50:27.724Z,4.04
2019-03-19T04:52:59.348Z,4.05
2019-03-19T04:55:31.234Z,4.03
2019-03-19T04:58:02.733Z,4.04
2019-03-19T05:00:34.204Z,4.00
2019-03-19T05:03:05.880Z,3.99
2019-03-19T05:05:37.571Z,4.02
2019-03-19T05:08:08.990Z,4.03
2019-03-19T05:10:40.576Z,3.96
2019-03-19T05:13:12.165Z,3.98
2019-03-19T05:15:43.600Z,3.98
2019-03-19T05:18:15.384Z,4.02
2019-03-19T05:20:47.151Z,3.96
2019-03-19T05:23:18.640Z,3.95
2019-03-19T05:25:50.225Z,3.95
2019-03-19T05:28:21.648Z,3.97
2019-03-19T05:30:53.325Z,4.01
2019-03-19T05:33:24.898Z,4.04
2019-03-19T05:35:56.227Z,4.09
2019-03-19T05:38:27.898Z,4.12
2019-03-19T05:40:59.241Z,4.14
2019-03-19T05:43:31.006Z,4.17
2019-03-19T05:46:02.593Z,4.16
2019-03-19T05:48:33.987Z,4.19
2019-03-19T05:51:05.775Z,4.20
2019-03-19T05:53:37.314Z,4.18
2019-03-19T05:56:08.824Z,4.18
2019-03-19T05:58:40.203Z,4.20
2019-03-19T06:01:11.838Z,4.26
2019-03-19T06:03:43.493Z,4.33
2019-03-19T06:06:14.884Z,4.40
2019-03-19T06:08:46.422Z,4.38
2019-03-19T06:11:17.950Z,4.47
2019-03-19T06:13:49.530Z,4.52
2019-03-19T06:16:21.265Z,4.51
2019-03-19T06:18:52.819Z,4.55
2019-03-19T06:21:24.639Z,4.55
2019-03-19T06:23:56.089Z,4.62
2019-03-19T06:26:27.678Z,4.75
2019-03-19T06:28:59.143Z,4.83
2019-03-19T06:31:30.759Z,4.74
2019-03-19T06:34:02.286Z,4.77
2019-03-19T06:36:34.007Z,4.79
2019-03-19T06:39:08.087Z,4.66
2019-03-19T06:41:40.099Z,4.57
2019-03-19T06:44:11.605Z,6.92
2019-03-19T06:46:43.322Z,7.90
2019-03-19T06:49:14.811Z,8.45
2019-03-19T06:51:46.472Z,10.85
2019-03-19T06:54:18.166Z,12.36
2019-03-19T06:56:49.638Z,11.65
2019-03-19T06:59:21.384Z,10.70
2019-03-19T07:01:53.164Z,9.75
2019-03-19T07:04:24.896Z,10.44
2019-03-19T07:06:56.581Z,12.24
2019-03-19T07:09:29.716Z,12.63
2019-03-19T07:12:01.717Z,11.49
2019-03-19T07:14:34.640Z,10.96
2019-03-19T07:17:06.328Z,11.05
2019-03-19T07:19:38.284Z,12.92
2019-03-19T07:22:09.839Z,11.89
2019-03-19T07:24:41.692Z,10.05
2019-03-19T07:27:13.177Z,9.16
2019-03-19T07:29:44.924Z,9.05
2019-03-19T07:32:16.427Z,8.91
2019-03-19T07:34:49.529Z,8.81
2019-03-19T07:37:21.221Z,8.80
2019-03-19T07:39:52.803Z,8.65
2019-03-19T07:42:24.379Z,8.35
2019-03-19T07:44:55.790Z,8.59
2019-03-19T07:47:27.315Z,9.11
2019-03-19T07:49:58.630Z,8.79
2019-03-19T07:52:30.999Z,8.70
2019-03-19T07:55:02.818Z,9.25
2019-03-19T07:57:34.748Z,10.34
2019-03-19T08:00:07.429Z,12.46
2019-03-19T08:02:39.134Z,12.17
2019-03-19T08:05:10.955Z,14.77
2019-03-19T08:07:42.669Z,13.81
2019-03-19T08:10:14.663Z,12.44
2019-03-19T08:12:46.542Z,13.58
2019-03-19T08:15:18.034Z,13.59
2019-03-19T08:17:49.672Z,11.33
2019-03-19T08:20:21.253Z,11.23
2019-03-19T08:22:52.814Z,13.36
2019-03-19T08:25:24.377Z,14.37
2019-03-19T08:27:55.761Z,15.61
2019-03-19T08:30:27.565Z,15.50
2019-03-19T08:32:59.089Z,15.54
2019-03-19T08:35:30.796Z,13.80
2019-03-19T08:38:02.435Z,15.37
2019-03-19T08:40:33.896Z,15.54
2019-03-19T08:43:05.775Z,13.55
2019-03-19T08:45:37.492Z,14.85
2019-03-19T08:48:09.848Z,14.63
2019-03-19T08:50:41.799Z,14.50
2019-03-19T08:53:13.410Z,13.77
2019-03-19T08:55:45.468Z,14.55
2019-03-19T08:58:17.174Z,14.88
2019-03-19T09:00:48.786Z,14.59
2019-03-19T09:03:20.279Z,15.00
2019-03-19T09:05:51.994Z,14.34
2019-03-19T09:08:24.546Z,13.72
2019-03-19T09:10:56.175Z,15.28
2019-03-19T09:13:28.593Z,15.23
2019-03-19T09:16:00.611Z,14.85
2019-03-19T09:18:32.311Z,14.09
2019-03-19T09:21:03.766Z,13.21
2019-03-19T09:23:35.592Z,12.04
2019-03-19T09:26:07.522Z,11.10
2019-03-19T09:28:39.255Z,11.54
2019-03-19T09:31:10.858Z,11.79
2019-03-19T09:33:42.844Z,12.63
2019-03-19T09:36:14.327Z,11.58
2019-03-19T09:38:46.064Z,12.36
2019-03-19T09:41:17.493Z,13.23
2019-03-19T09:43:49.396Z,13.25
2019-03-19T09:46:20.904Z,13.22
2019-03-19T09:48:52.657Z,13.22
2019-03-19T09:51:25.002Z,12.89
2019-03-19T09:53:57.041Z,13.45
2019-03-19T09:56:28.984Z,13.75
2019-03-19T09:59:00.570Z,13.60
2019-03-19T10:01:32.116Z,11.30
2019-03-19T10:04:03.749Z,11.30
2019-03-19T10:06:35.499Z,11.72
2019-03-19T10:09:09.010Z,12.31
2019-03-19T10:11:40.943Z,13.10
2019-03-19T10:14:12.551Z,14.00
2019-03-19T10:16:44.284Z,14.00
2019-03-19T10:19:15.963Z,13.51
2019-03-19T10:21:47.551Z,13.23
2019-03-19T10:24:19.525Z,13.57
2019-03-19T10:26:51.613Z,13.51
2019-03-19T10:29:23.198Z,13.55
2019-03-19T10:31:54.989Z,13.98
2019-03-19T10:34:26.579Z,12.65
2019-03-19T10:36:59.210Z,12.61
2019-03-19T10:39:30.946Z,13.33
2019-03-19T10:42:02.534Z,13.81
2019-03-19T10:44:35.162Z,12.67
2019-03-19T10:47:07.387Z,13.27
2019-03-19T10:49:38.987Z,12.07
2019-03-19T10:52:10.697Z,12.93
2019-03-19T10:54:42.346Z,12.54
2019-03-19T10:57:14.163Z,13.82
2019-03-19T10:59:49.323Z,12.52
2019-03-19T11:02:20.248Z,12.59
2019-03-19T11:04:52.189Z,14.14
2019-03-19T11:07:24.572Z,13.65
2019-03-19T11:09:56.202Z,14.11
2019-03-19T11:12:27.795Z,13.95
2019-03-19T11:14:59.458Z,14.27
2019-03-19T11:17:31.139Z,14.76
2019-03-19T11:20:03.071Z,12.76
2019-03-19T11:22:34.928Z,13.24
2019-03-19T11:25:08.411Z,12.84
2019-03-19T11:27:40.528Z,12.57
2019-03-19T11:30:15.462Z,11.69
2019-03-19T11:32:46.940Z,11.69
2019-03-19T11:35:18.832Z,11.59
2019-03-19T11:37:50.611Z,11.62
2019-03-19T11:40:22.501Z,12.06
2019-03-19T11:42:55.106Z,11.71
2019-03-19T11:45:27.117Z,11.75
2019-03-19T11:47:58.792Z,13.93
2019-03-19T11:50:33.144Z,13.67
2019-03-19T11:53:04.420Z,13.23
2019-03-19T11:55:36.088Z,12.38
2019-03-19T11:58:07.531Z,11.69
2019-03-19T12:00:40.746Z,11.91
2019-03-19T12:03:16.108Z,11.84
2019-03-19T12:05:45.606Z,11.98
2019-03-19T12:08:17.323Z,12.90
2019-03-19T12:10:48.934Z,13.33
2019-03-19T12:13:20.294Z,13.96
2019-03-19T12:15:51.825Z,13.96
2019-03-19T12:18:23.178Z,12.97
2019-03-19T12:20:54.808Z,12.08
2019-03-19T12:23:26.441Z,12.08
2019-03-19T12:25:58.036Z,12.86
2019-03-19T12:28:39.351Z,12.88
2019-03-19T12:31:03.186Z,12.34
2019-03-19T12:33:40.788Z,11.53
2019-03-19T12:36:08.250Z,11.55
2019-03-19T12:38:40.041Z,11.75
2019-03-19T12:41:11.595Z,11.47
2019-03-19T12:43:43.492Z,11.10
2019-03-19T12:46:15.133Z,10.74
2019-03-19T12:48:46.543Z,10.20
2019-03-19T12:51:18.147Z,10.16
2019-03-19T12:53:50.189Z,10.26
2019-03-19T12:56:21.709Z,10.15
2019-03-19T12:58:53.353Z,10.06
2019-03-19T13:01:25.112Z,9.85
2019-03-19T13:03:56.866Z,9.22
2019-03-19T13:06:28.473Z,9.71
2019-03-19T13:09:00.000Z,9.65
2019-03-19T13:11:31.704Z,9.58
2019-03-19T13:14:03.109Z,9.30
2019-03-19T13:16:34.632Z,9.03
2019-03-19T13:19:06.214Z,9.26
2019-03-19T13:21:37.985Z,9.23
2019-03-19T13:24:10.592Z,9.32
2019-03-19T13:26:42.391Z,9.20
2019-03-19T13:29:13.928Z,9.15
2019-03-19T13:31:45.705Z,8.98
2019-03-19T13:34:17.334Z,9.20
2019-03-19T13:36:49.110Z,9.45
2019-03-19T13:39:20.965Z,9.32
2019-03-19T13:41:52.410Z,9.34
2019-03-19T13:44:24.279Z,9.02
2019-03-19T13:46:55.648Z,9.35
2019-03-19T13:49:27.304Z,9.31
2019-03-19T13:51:59.029Z,9.65
2019-03-19T13:54:30.492Z,9.68
2019-03-19T13:57:03.459Z,9.43
2019-03-19T13:59:36.183Z,9.40
2019-03-19T14:02:07.961Z,9.77
2019-03-19T14:04:39.435Z,11.67
2019-03-19T14:07:11.200Z,12.35
2019-03-19T14:09:42.607Z,13.47
2019-03-19T14:12:16.154Z,13.07
2019-03-19T14:14:47.754Z,13.48
2019-03-19T14:17:19.345Z,12.08
2019-03-19T14:19:51.501Z,11.41
2019-03-19T14:22:23.222Z,11.05
2019-03-19T14:24:55.580Z,11.13
2019-03-19T14:27:27.693Z,11.80
2019-03-19T14:30:01.218Z,11.80
2019-03-19T14:32:32.728Z,11.76
2019-03-19T14:35:05.005Z,11.66
2019-03-19T14:37:37.159Z,11.44
2019-03-19T14:40:10.266Z,11.32
2019-03-19T14:42:41.857Z,11.16
2019-03-19T14:45:14.610Z,10.87
2019-03-19T14:47:47.273Z,10.59
2019-03-19T14:50:18.818Z,10.31
2019-03-19T14:52:50.624Z,10.08
2019-03-19T14:55:22.624Z,9.95
2019-03-19T14:57:54.485Z,10.02
2019-03-19T15:00:25.871Z,9.97
2019-03-19T15:02:57.155Z,9.84
2019-03-19T15:05:28.817Z,9.86
2019-03-19T15:08:00.341Z,9.82
2019-03-19T15:10:32.080Z,9.94
2019-03-19T15:13:04.102Z,10.10
2019-03-19T15:15:35.830Z,10.11
2019-03-19T15:18:07.891Z,10.04
2019-03-19T15:20:39.214Z,10.03
2019-03-19T15:23:11.507Z,9.90
2019-03-19T15:25:43.132Z,9.91
2019-03-19T15:28:15.997Z,9.92
2019-03-19T15:30:47.880Z,9.93
2019-03-19T15:33:19.415Z,9.78
2019-03-19T15:35:50.906Z,9.82
2019-03-19T15:38:22.650Z,9.78
2019-03-19T15:40:54.383Z,9.77
2019-03-19T15:43:26.173Z,9.82
2019-03-19T15:45:57.771Z,9.75
2019-03-19T15:48:29.395Z,9.80
2019-03-19T15:51:01.169Z,9.61
2019-03-19T15:53:33.043Z,9.67
2019-03-19T15:56:04.452Z,9.78
2019-03-19T15:58:35.976Z,9.80
2019-03-19T16:01:07.470Z,9.92
2019-03-19T16:03:38.975Z,9.71
2019-03-19T16:06:10.682Z,9.52
2019-03-19T16:08:42.244Z,9.29
2019-03-19T16:11:13.625Z,9.37
2019-03-19T16:13:45.212Z,9.45
2019-03-19T16:16:17.399Z,9.30
2019-03-19T16:18:49.128Z,9.30
2019-03-19T16:21:22.170Z,9.22
2019-03-19T16:23:53.818Z,9.09
2019-03-19T16:26:26.381Z,8.99
2019-03-19T16:28:57.818Z,8.97
2019-03-19T16:31:29.137Z,8.88
2019-03-19T16:34:01.142Z,8.93
2019-03-19T16:36:32.852Z,8.82
2019-03-19T16:39:05.980Z,8.82
2019-03-19T16:41:39.075Z,8.75
2019-03-19T16:44:11.659Z,8.71
2019-03-19T16:46:43.334Z,8.63
2019-03-19T16:49:14.950Z,8.69
2019-03-19T16:51:46.669Z,8.68
2019-03-19T16:54:19.454Z,8.56
2019-03-19T16:56:51.291Z,8.52
2019-03-19T16:59:22.838Z,8.45
2019-03-19T17:02:01.700Z,8.50
2019-03-19T17:04:27.771Z,8.45
2019-03-19T17:06:59.612Z,8.29
2019-03-19T17:09:31.175Z,8.33
2019-03-19T17:12:03.212Z,8.34
2019-03-19T17:14:34.767Z,8.22
2019-03-19T17:17:06.431Z,8.14
2019-03-19T17:19:37.906Z,8.12
2019-03-19T17:22:09.593Z,8.03
2019-03-19T17:24:41.208Z,8.03
2019-03-19T17:27:12.875Z,7.86
2019-03-19T17:29:44.513Z,7.87
2019-03-19T17:32:16.204Z,7.80
2019-03-19T17:34:48.366Z,7.72
2019-03-19T17:37:20.492Z,7.69
2019-03-19T17:39:51.973Z,7.58
2019-03-19T17:42:23.532Z,7.35
2019-03-19T17:44:56.399Z,7.40
2019-03-19T17:47:28.060Z,7.32
2019-03-19T17:49:59.476Z,7.04
2019-03-19T17:52:30.985Z,7.06
2019-03-19T17:55:02.568Z,7.14
2019-03-19T17:57:35.435Z,6.98
2019-03-19T18:00:08.317Z,6.99
2019-03-19T18:02:39.910Z,6.99
2019-03-19T18:05:11.478Z,6.95
2019-03-19T18:07:43.278Z,6.82
2019-03-19T18:10:15.242Z,6.88
2019-03-19T18:12:46.729Z,6.90
2019-03-19T18:15:18.321Z,6.76
2019-03-19T18:17:49.999Z,6.71
2019-03-19T18:20:21.615Z,6.66
2019-03-19T18:22:53.383Z,6.63
2019-03-19T18:25:25.005Z,6.65
2019-03-19T18:27:56.885Z,6.63
2019-03-19T18:30:28.371Z,6.55
2019-03-19T18:32:58.739Z,6.52
2019-03-19T18:35:30.220Z,6.42
2019-03-19T18:38:01.913Z,6.47
2019-03-19T18:40:33.444Z,6.49
2019-03-19T18:43:05.344Z,6.46
2019-03-19T18:45:36.649Z,6.37
2019-03-19T18:48:08.119Z,6.34
2019-03-19T18:50:39.765Z,6.39
2019-03-19T18:53:11.397Z,6.19
2019-03-19T18:55:43.001Z,6.15
2019-03-19T18:58:14.733Z,6.12
2019-03-19T19:00:46.462Z,6.24
2019-03-19T19:03:18.171Z,6.08
2019-03-19T19:05:49.851Z,6.12
2019-03-19T19:08:21.438Z,6.14
2019-03-19T19:10:52.945Z,6.08
2019-03-19T19:13:24.770Z,5.99
2019-03-19T19:15:56.154Z,5.88
2019-03-19T19:18:26.856Z,6.06
2019-03-19T19:20:57.138Z,5.83
2019-03-19T19:23:27.231Z,5.86
2019-03-19T19:25:57.502Z,5.83
2019-03-19T19:28:27.768Z,5.80
2019-03-19T19:30:59.818Z,5.63
2019-03-19T19:33:29.918Z,5.56
2019-03-19T19:36:00.191Z,5.70
2019-03-19T19:38:30.472Z,5.70
2019-03-19T19:41:01.880Z,5.68
2019-03-19T19:43:33.409Z,5.60
2019-03-19T19:46:05.519Z,5.65
2019-03-19T19:48:37.158Z,5.63
2019-03-19T19:51:08.606Z,5.52
2019-03-19T19:53:40.344Z,5.50
2019-03-19T19:56:11.899Z,5.43
2019-03-19T19:58:43.746Z,5.40
2019-03-19T20:01:15.138Z,5.42
2019-03-19T20:03:46.435Z,5.43
2019-03-19T20:06:17.883Z,5.41
2019-03-19T20:08:49.352Z,5.37
2019-03-19T20:11:20.822Z,5.32
2019-03-19T20:13:52.574Z,5.32
2019-03-19T20:16:23.964Z,5.30
2019-03-19T20:18:55.527Z,5.31
2019-03-19T20:21:27.257Z,5.18
2019-03-19T20:23:59.850Z,5.10
2019-03-19T20:26:31.491Z,5.09
2019-03-19T20:29:04.112Z,5.07
2019-03-19T20:31:36.898Z,4.98
2019-03-19T20:34:08.589Z,4.97
2019-03-19T20:36:40.836Z,4.98
2019-03-19T20:39:12.580Z,4.84
2019-03-19T20:41:44.548Z,4.86
2019-03-19T20:44:16.252Z,4.93
2019-03-19T20:46:47.644Z,4.81
2019-03-19T20:49:19.325Z,4.77
2019-03-19T20:51:51.029Z,4.76
2019-03-19T20:54:22.911Z,4.78
2019-03-19T20:56:54.415Z,4.76
2019-03-19T20:59:26.049Z,4.71
2019-03-19T21:01:57.529Z,4.71
2019-03-19T21:04:31.638Z,4.65
2019-03-19T21:07:02.923Z,4.60
2019-03-19T21:09:34.539Z,4.68
2019-03-19T21:12:06.239Z,4.66
2019-03-19T21:14:38.851Z,4.60
2019-03-19T21:17:10.535Z,4.61
2019-03-19T21:19:42.150Z,4.62
2019-03-19T21:22:13.834Z,4.63
2019-03-19T21:24:45.414Z,4.54
2019-03-19T21:27:17.405Z,4.42
2019-03-19T21:29:49.099Z,4.42
2019-03-19T21:32:20.600Z,4.49
2019-03-19T21:34:54.612Z,4.45
2019-03-19T21:37:26.256Z,4.28
2019-03-19T21:39:58.544Z,4.24
2019-03-19T21:42:30.469Z,4.38
2019-03-19T21:45:01.900Z,4.25
2019-03-19T21:47:33.645Z,4.31
2019-03-19T21:50:07.167Z,4.23
2019-03-19T21:52:39.014Z,4.21
2019-03-19T21:55:11.066Z,4.11
2019-03-19T21:57:42.698Z,4.14
2019-03-19T22:00:16.671Z,4.13
2019-03-19T22:02:48.159Z,4.17
2019-03-19T22:05:20.008Z,4.10
2019-03-19T22:07:51.690Z,4.14
2019-03-19T22:10:23.490Z,4.17
2019-03-19T22:12:55.141Z,4.17
2019-03-19T22:15:26.514Z,4.11
2019-03-19T22:17:58.345Z,4.08
2019-03-19T22:20:29.962Z,4.14
2019-03-19T22:23:01.908Z,4.17
2019-03-19T22:25:33.558Z,4.12
2019-03-19T22:28:05.316Z,4.20
2019-03-19T22:30:37.261Z,4.14
2019-03-19T22:33:08.826Z,4.17
2019-03-19T22:35:40.374Z,4.11
2019-03-19T22:38:11.944Z,4.22
2019-03-19T22:40:43.605Z,4.22
2019-03-19T22:43:15.495Z,4.16
2019-03-19T22:45:47.091Z,3.93
2019-03-19T22:48:18.839Z,3.92
2019-03-19T22:50:50.433Z,4.01
2019-03-19T22:53:22.267Z,4.01
2019-03-19T22:55:54.033Z,3.99
2019-03-19T22:58:25.708Z,3.96
2019-03-19T23:00:57.739Z,3.90
2019-03-19T23:03:29.547Z,3.74
2019-03-19T23:06:00.909Z,3.72
2019-03-19T23:08:33.663Z,3.61
2019-03-19T23:11:05.404Z,3.56
2019-03-19T23:13:37.025Z,3.53
2019-03-19T23:16:08.606Z,3.64
2019-03-19T23:18:40.330Z,3.75
2019-03-19T23:21:12.206Z,3.77
2019-03-19T23:23:43.774Z,3.63
2019-03-19T23:26:14.417Z,3.54
2019-03-19T23:28:45.999Z,3.02
2019-03-19T23:31:17.612Z,3.13
2019-03-19T23:33:49.177Z,2.78
2019-03-19T23:36:20.792Z,2.59
2019-03-19T23:38:52.704Z,2.87
2019-03-19T23:41:24.378Z,2.63
2019-03-19T23:43:55.934Z,2.57
2019-03-19T23:46:27.385Z,2.33
2019-03-19T23:49:00.959Z,2.31
2019-03-19T23:51:32.617Z,2.29
2019-03-19T23:54:04.547Z,2.50
2019-03-19T23:56:36.398Z,2.60
2019-03-19T23:59:07.859Z,2.59
